Time;durP1;ratioP1;P1;durP2;ratioP2;P2;SDS_P1;SDS_P2;PMS_P1;PMS_P2;Temp;Humidity;BMP_temperature;BMP_pressure;BME280_temperature;BME280_humidity;BME280_pressure;Samples;Min_cycle;Max_cycle;Signal;HPM_P1;HPM_P2
2022/12/25 00:03:14;;;;;;;24.75;12.88;;;;;;;;;;5054876;28;20028;-71
2022/12/25 00:09:14;;;;;;;31.08;17.75;;;;;;;;;;5054750;28;20084;-71
2022/12/25 00:15:15;;;;;;;33.78;20.15;;;;;;;;;;5054887;28;20199;-71
2022/12/25 00:21:16;;;;;;;34.63;19.25;;;;;;;;;;5054560;28;20483;-71
2022/12/25 00:27:16;;;;;;;26.25;15.20;;;;;;;;;;5054721;28;20051;-71
2022/12/25 00:33:17;;;;;;;25.92;14.30;;;;;;;;;;5054362;28;20079;-71
2022/12/25 00:39:18;;;;;;;24.30;13.98;;;;;;;;;;5053614;28;20108;-71
2022/12/25 00:49:45;;;;;;;22.52;14.32;;;;;;;;;;5054377;28;20135;-71
2022/12/25 00:55:49;;;;;;;22.95;13.95;;;;;;;;;;5054208;28;20027;-71
2022/12/25 01:01:49;;;;;;;25.05;15.68;;;;;;;;;;5054142;28;20122;-71
2022/12/25 01:07:49;;;;;;;24.33;16.08;;;;;;;;;;5054026;28;20127;-71
2022/12/25 01:13:49;;;;;;;29.52;18.10;;;;;;;;;;5054016;28;20049;-71
2022/12/25 01:19:49;;;;;;;28.85;18.20;;;;;;;;;;5053978;28;20111;-71
2022/12/25 01:25:50;;;;;;;30.70;19.50;;;;;;;;;;5053563;28;20075;-71
2022/12/25 01:31:50;;;;;;;31.65;19.50;;;;;;;;;;5053748;28;20083;-68
2022/12/25 01:37:50;;;;;;;31.33;19.92;;;;;;;;;;5053426;28;20051;-68
2022/12/25 01:54:33;;;;;;;27.90;18.02;;;;;;;;;;5057587;28;20523;-68
2022/12/25 02:00:33;;;;;;;26.77;17.98;;;;;;;;;;5057460;28;20024;-68
2022/12/25 02:06:34;;;;;;;27.33;18.70;;;;;;;;;;5057360;28;20083;-68
2022/12/25 02:12:34;;;;;;;27.10;17.80;;;;;;;;;;5057258;28;20036;-68
2022/12/25 02:18:50;;;;;;;28.65;19.27;;;;;;;;;;5056891;28;20036;-68
2022/12/25 02:24:53;;;;;;;30.35;19.58;;;;;;;;;;5057054;28;20051;-68
2022/12/25 02:31:07;;;;;;;32.42;21.05;;;;;;;;;;5056916;28;20071;-68
2022/12/25 02:37:00;;;;;;;30.00;20.15;;;;;;;;;;5056492;28;19920;-68
2022/12/25 03:08:13;;;;;;;30.70;19.55;;;;;;;;;;5036068;28;20024;-68
2022/12/25 03:27:57;;;;;;;28.92;19.77;;;;;;;;;;5035915;28;20029;-68
2022/12/25 07:33:54;;;;;;;38.78;23.10;;;;;;;;;;5044412;28;20084;-68
2022/12/25 07:36:20;;;;;;;48.42;30.13;;;;;;;;;;5044470;28;20034;-68
2022/12/25 07:38:48;;;;;;;49.15;29.55;;;;;;;;;;5038059;28;20045;-68
2022/12/25 07:41:14;;;;;;;59.08;38.88;;;;;;;;;;5044554;28;20092;-68
2022/12/25 07:43:39;;;;;;;58.47;42.08;;;;;;;;;;5054617;28;20033;-68
2022/12/25 07:46:05;;;;;;;55.90;36.30;;;;;;;;;;5037767;28;20048;-68
2022/12/25 07:52:05;;;;;;;45.72;29.83;;;;;;;;;;5055401;28;20043;-68
2022/12/25 07:58:05;;;;;;;51.72;31.88;;;;;;;;;;5055006;28;20095;-68
2022/12/25 08:04:08;;;;;;;57.90;34.08;;;;;;;;;;5055154;28;20480;-68
2022/12/25 08:10:08;;;;;;;71.40;43.70;;;;;;;;;;5055048;28;20043;-68
2022/12/25 08:16:09;;;;;;;44.47;30.13;;;;;;;;;;5054821;28;20032;-68
2022/12/25 08:22:22;;;;;;;29.27;21.38;;;;;;;;;;5054838;28;20123;-68
2022/12/25 08:28:22;;;;;;;25.92;17.25;;;;;;;;;;5054724;28;20515;-69
2022/12/25 08:38:23;;;;;;;;;;;;;;;;;;5074742;28;20126;-68
2022/12/25 08:44:37;;;;;;;24.33;15.88;;;;;;;;;;5074152;28;20248;-68
2022/12/25 08:50:37;;;;;;;25.75;18.08;;;;;;;;;;5074325;28;20098;-68
2022/12/25 08:56:52;;;;;;;25.05;16.98;;;;;;;;;;5074117;28;20047;-68
2022/12/25 09:02:52;;;;;;;30.60;19.98;;;;;;;;;;5074173;28;20027;-68
2022/12/25 09:08:52;;;;;;;30.17;21.52;;;;;;;;;;5074070;28;20115;-69
2022/12/25 09:14:52;;;;;;;27.98;19.85;;;;;;;;;;5073968;28;20031;-68
2022/12/25 09:20:56;;;;;;;33.58;20.90;;;;;;;;;;5073910;28;20031;-68
2022/12/25 09:26:56;;;;;;;27.25;19.20;;;;;;;;;;5073830;28;20035;-68
2022/12/25 09:32:56;;;;;;;32.00;21.15;;;;;;;;;;5073573;28;20031;-68
2022/12/25 09:38:56;;;;;;;27.27;19.25;;;;;;;;;;5073480;28;20106;-68
2022/12/25 09:44:59;;;;;;;29.58;20.27;;;;;;;;;;5073669;28;20032;-68
2022/12/25 09:51:03;;;;;;;31.77;20.05;;;;;;;;;;5073640;28;20411;-68
2022/12/25 09:57:04;;;;;;;25.77;19.20;;;;;;;;;;5073467;28;20490;-68
2022/12/25 10:03:12;;;;;;;32.95;20.08;;;;;;;;;;5073479;28;20028;-68
2022/12/25 10:20:02;;;;;;;36.33;21.92;;;;;;;;;;5015449;28;20053;-68
2022/12/25 10:26:02;;;;;;;38.10;23.48;;;;;;;;;;5015226;28;20053;-68
2022/12/25 10:32:02;;;;;;;52.58;35.13;;;;;;;;;;5015205;28;20095;-68
2022/12/25 10:46:30;;;;;;;22.25;13.45;;;;;;;;;;4975961;28;20046;-68
2022/12/25 10:52:30;;;;;;;45.40;24.27;;;;;;;;;;4975786;28;20113;-68
2022/12/25 10:58:31;;;;;;;32.28;18.02;;;;;;;;;;4975396;28;20057;-68
2022/12/25 11:04:33;;;;;;;29.67;17.42;;;;;;;;;;4975895;28;20033;-68
2022/12/25 11:10:33;;;;;;;23.83;14.80;;;;;;;;;;4975473;28;20415;-68
2022/12/25 11:16:35;;;;;;;18.23;12.57;;;;;;;;;;4975491;28;20038;-68
2022/12/25 11:22:35;;;;;;;28.15;18.33;;;;;;;;;;5035687;28;20031;-68
2022/12/25 11:28:36;;;;;;;28.63;18.60;;;;;;;;;;5055653;28;20048;-68
2022/12/25 11:34:41;;;;;;;31.98;18.88;;;;;;;;;;5055760;28;20504;-68
2022/12/25 11:59:33;;;;;;;20.63;10.82;;;;;;;;;;5075305;28;20115;-68
2022/12/25 12:05:41;;;;;;;20.55;12.35;;;;;;;;;;5075230;28;20537;-68
2022/12/25 12:11:45;;;;;;;10.32;7.25;;;;;;;;;;5075072;28;20074;-68
2022/12/25 12:17:46;;;;;;;13.05;8.00;;;;;;;;;;5074718;28;20040;-68
2022/12/25 12:23:55;;;;;;;14.68;8.18;;;;;;;;;;5074821;28;20023;-68
2022/12/25 12:29:57;;;;;;;13.40;8.00;;;;;;;;;;5074725;28;20094;-68
2022/12/25 12:35:58;;;;;;;12.73;7.38;;;;;;;;;;5074490;28;20155;-68
2022/12/25 12:41:58;;;;;;;12.13;6.90;;;;;;;;;;5074466;28;20082;-68
2022/12/25 12:52:35;;;;;;;20.77;10.30;;;;;;;;;;5074352;28;20026;-68
2022/12/25 12:58:37;;;;;;;12.10;8.35;;;;;;;;;;5073879;28;20095;-68
2022/12/25 13:04:49;;;;;;;15.27;9.40;;;;;;;;;;5074150;28;20531;-68
2022/12/25 13:10:52;;;;;;;19.20;11.13;;;;;;;;;;5074041;28;20028;-68
2022/12/25 13:16:53;;;;;;;17.00;10.07;;;;;;;;;;5073906;28;20063;-68
2022/12/25 13:22:54;;;;;;;13.13;9.63;;;;;;;;;;5073937;28;20091;-68
2022/12/25 13:28:55;;;;;;;42.67;28.05;;;;;;;;;;5073865;28;20048;-68
2022/12/25 13:34:56;;;;;;;35.38;18.65;;;;;;;;;;5073800;28;20048;-68
2022/12/25 13:51:24;;;;;;;23.15;11.75;;;;;;;;;;5077774;28;20036;-68
2022/12/25 14:08:22;;;;;;;27.17;17.23;;;;;;;;;;5077223;28;20090;-71
2022/12/25 14:14:23;;;;;;;26.08;17.83;;;;;;;;;;5077101;28;20094;-71
2022/12/25 14:20:28;;;;;;;34.05;23.13;;;;;;;;;;5077241;28;20483;-71
2022/12/25 14:26:30;;;;;;;31.23;20.00;;;;;;;;;;5076835;28;20136;-71
2022/12/25 14:39:43;;;;;;;21.08;13.80;;;;;;;;;;5015200;28;20444;-71
2022/12/25 14:59:40;;;;;;;42.17;28.23;;;;;;;;;;5033178;28;20040;-71
2022/12/25 15:05:40;;;;;;;45.92;33.90;;;;;;;;;;5039097;28;20044;-71
2022/12/25 15:11:41;;;;;;;52.47;36.83;;;;;;;;;;5056266;28;20108;-71
2022/12/25 15:17:40;;;;;;;43.17;30.83;;;;;;;;;;5055943;28;20043;-71
2022/12/25 15:23:41;;;;;;;16.83;12.05;;;;;;;;;;5056086;28;20167;-71
2022/12/25 15:29:40;;;;;;;17.80;13.63;;;;;;;;;;5055952;28;20035;-71
2022/12/25 15:35:43;;;;;;;28.40;18.98;;;;;;;;;;5055856;28;20487;-71
2022/12/25 15:52:11;;;;;;;16.52;11.52;;;;;;;;;;5075502;28;20031;-71
2022/12/25 15:58:13;;;;;;;17.40;13.65;;;;;;;;;;5075159;28;20059;-71
2022/12/25 16:04:14;;;;;;;27.38;20.17;;;;;;;;;;5075287;28;20094;-71
2022/12/25 16:10:17;;;;;;;33.22;23.42;;;;;;;;;;5074748;28;20503;-71
2022/12/25 16:16:17;;;;;;;47.22;28.00;;;;;;;;;;5074742;28;20094;-71
2022/12/25 16:22:21;;;;;;;141.68;100.85;;;;;;;;;;5074891;28;20034;-71
2022/12/25 16:28:22;;;;;;;103.18;61.38;;;;;;;;;;5074749;28;20061;-71
2022/12/25 16:34:22;;;;;;;85.15;38.05;;;;;;;;;;5074395;28;20039;-71
2022/12/25 16:40:23;;;;;;;204.18;57.10;;;;;;;;;;5074537;28;20051;-71
2022/12/25 16:46:23;;;;;;;546.42;132.90;;;;;;;;;;5074417;28;20067;-71
2022/12/25 16:56:39;;;;;;;164.10;61.13;;;;;;;;;;5074217;28;20083;-71
2022/12/25 17:02:39;;;;;;;87.78;38.03;;;;;;;;;;5073914;28;20138;-71
2022/12/25 17:08:40;;;;;;;112.20;46.83;;;;;;;;;;5074111;28;20118;-71
2022/12/25 17:14:41;;;;;;;183.68;80.18;;;;;;;;;;5074079;28;20130;-71
2022/12/25 17:20:48;;;;;;;52.88;32.90;;;;;;;;;;5073583;28;20051;-71
2022/12/25 17:26:47;;;;;;;59.63;39.33;;;;;;;;;;5073872;28;20027;-71
2022/12/25 17:32:48;;;;;;;98.70;61.10;;;;;;;;;;5073803;28;20466;-71
2022/12/25 17:38:48;;;;;;;75.28;38.95;;;;;;;;;;5073461;28;20035;-71
2022/12/25 17:44:49;;;;;;;70.32;34.92;;;;;;;;;;5073707;28;20074;-71
2022/12/25 17:50:49;;;;;;;120.45;68.47;;;;;;;;;;5073930;28;20094;-71
2022/12/25 17:57:03;;;;;;;74.40;46.25;;;;;;;;;;5073478;28;20090;-71
2022/12/25 18:03:03;;;;;;;32.13;20.60;;;;;;;;;;5073562;28;20537;-71
2022/12/25 18:09:05;;;;;;;46.33;28.98;;;;;;;;;;5073461;28;20031;-71
2022/12/25 18:15:05;;;;;;;53.47;29.50;;;;;;;;;;5073425;28;20051;-71
2022/12/25 18:21:06;;;;;;;53.03;33.22;;;;;;;;;;5073352;28;20074;-71
2022/12/25 18:27:07;;;;;;;57.22;32.22;;;;;;;;;;5073281;28;20032;-71
2022/12/25 18:33:07;;;;;;;46.95;29.63;;;;;;;;;;5074497;28;20031;-71
2022/12/25 18:39:10;;;;;;;45.45;27.85;;;;;;;;;;5076859;28;20066;-71
2022/12/25 18:45:11;;;;;;;46.70;26.55;;;;;;;;;;5076778;28;20186;-71
2022/12/25 18:55:24;;;;;;;26.75;17.65;;;;;;;;;;5076623;28;20028;-71
2022/12/25 19:01:24;;;;;;;29.67;18.95;;;;;;;;;;5076520;28;20035;-71
2022/12/25 19:07:25;;;;;;;34.17;22.00;;;;;;;;;;5076193;28;20131;-71
2022/12/25 19:13:26;;;;;;;29.10;19.38;;;;;;;;;;5076278;28;20037;-71
2022/12/25 19:19:26;;;;;;;30.77;19.67;;;;;;;;;;5076155;28;20552;-71
2022/12/25 19:25:26;;;;;;;37.20;23.17;;;;;;;;;;5076045;28;20081;-71
2022/12/25 19:31:27;;;;;;;38.70;21.88;;;;;;;;;;5075589;28;20539;-71
2022/12/25 19:37:27;;;;;;;30.45;19.05;;;;;;;;;;5075715;28;20098;-71
2022/12/25 19:43:32;;;;;;;117.40;62.67;;;;;;;;;;5075692;28;20086;-71
2022/12/25 19:49:33;;;;;;;42.35;28.00;;;;;;;;;;5075577;28;20031;-71
2022/12/25 19:59:47;;;;;;;42.20;22.98;;;;;;;;;;5075472;28;20039;-71
2022/12/25 20:05:48;;;;;;;47.65;25.83;;;;;;;;;;5075252;28;20027;-71
2022/12/25 20:12:02;;;;;;;46.92;23.50;;;;;;;;;;5075160;28;20085;-71
2022/12/25 20:18:03;;;;;;;52.88;26.38;;;;;;;;;;5074809;28;20036;-71
2022/12/25 20:24:05;;;;;;;58.15;27.85;;;;;;;;;;5074909;28;20094;-71
2022/12/25 20:30:06;;;;;;;44.10;26.10;;;;;;;;;;5074771;28;20077;-71
2022/12/25 20:36:07;;;;;;;36.40;21.58;;;;;;;;;;5074388;28;20082;-71
2022/12/25 20:42:07;;;;;;;38.75;21.52;;;;;;;;;;5074551;28;20380;-71
2022/12/25 20:48:08;;;;;;;36.22;23.35;;;;;;;;;;5074438;28;20507;-71
2022/12/25 20:54:08;;;;;;;35.33;21.23;;;;;;;;;;5074131;28;20106;-71
2022/12/25 21:00:22;;;;;;;36.03;20.25;;;;;;;;;;5074234;28;20103;-71
2022/12/25 21:06:22;;;;;;;40.95;23.38;;;;;;;;;;5074175;28;20384;-71
2022/12/25 21:12:22;;;;;;;34.33;19.80;;;;;;;;;;5074074;28;20151;-71
2022/12/25 21:18:22;;;;;;;50.47;27.77;;;;;;;;;;5073698;28;20138;-71
2022/12/25 21:24:23;;;;;;;51.88;29.05;;;;;;;;;;5073955;28;20135;-71
2022/12/25 21:30:23;;;;;;;51.88;26.38;;;;;;;;;;5073890;28;20062;-71
2022/12/25 21:36:28;;;;;;;39.88;22.30;;;;;;;;;;5073792;28;20584;-71
2022/12/25 21:42:29;;;;;;;58.30;33.92;;;;;;;;;;5073743;28;20560;-71
2022/12/25 21:48:29;;;;;;;29.70;18.10;;;;;;;;;;5073704;28;20067;-71
2022/12/25 21:58:36;;;;;;;41.45;24.08;;;;;;;;;;5073413;28;20518;-71
2022/12/25 22:04:50;;;;;;;40.10;22.55;;;;;;;;;;5073514;28;20388;-71
2022/12/25 22:10:50;;;;;;;51.42;27.08;;;;;;;;;;5077470;28;20097;-71
2022/12/25 22:23:41;;;;;;;377.40;241.38;;;;;;;;;;5077194;28;20102;-71
2022/12/25 22:29:41;;;;;;;76.68;40.55;;;;;;;;;;5076819;28;20035;-71
2022/12/25 22:35:41;;;;;;;55.92;32.50;;;;;;;;;;5076963;28;20055;-71
2022/12/25 22:41:41;;;;;;;45.33;28.85;;;;;;;;;;5076859;28;20439;-71
2022/12/25 22:47:41;;;;;;;39.33;22.75;;;;;;;;;;5076542;28;20133;-71
2022/12/25 22:53:41;;;;;;;49.20;25.20;;;;;;;;;;5076678;28;20054;-71
2022/12/25 23:04:10;;;;;;;50.63;30.08;;;;;;;;;;5076573;28;20506;-71
2022/12/25 23:10:10;;;;;;;63.13;36.30;;;;;;;;;;5076387;28;20091;-71
2022/12/25 23:16:14;;;;;;;36.40;24.90;;;;;;;;;;5076296;28;20095;-68
2022/12/25 23:35:58;;;;;;;24.92;14.68;;;;;;;;;;5075919;28;20118;-67
2022/12/25 23:41:58;;;;;;;26.27;15.93;;;;;;;;;;5075799;28;20094;-67
2022/12/25 23:47:59;;;;;;;21.95;14.10;;;;;;;;;;5075675;28;20027;-67
2022/12/25 23:53:59;;;;;;;23.67;14.88;;;;;;;;;;5075541;28;20027;-67
